Time;durP1;ratioP1;P1;durP2;ratioP2;P2;SDS_P1;SDS_P2;PMS_P1;PMS_P2;Temp;Humidity;BMP_temperature;BMP_pressure;BME280_temperature;BME280_humidity;BME280_pressure;Samples;Min_cycle;Max_cycle;Signal;HPM_P1;HPM_P2
2022/08/20 00:00:38;;;;;;;17.90;10.20;;;;;;;25.65;100.00;100003.07;651913;1284;139842;-81
2022/08/20 00:15:42;;;;;;;13.90;9.10;;;;;;;25.40;100.00;99972.11;655056;1284;141032;-80
2022/08/20 00:30:47;;;;;;;14.20;7.90;;;;;;;25.22;100.00;99936.56;652019;1284;1507473;-81
2022/08/20 00:45:54;;;;;;;15.60;7.40;;;;;;;25.19;100.00;99907.46;653667;1283;139483;-81
2022/08/20 01:00:58;;;;;;;18.30;6.50;;;;;;;25.07;100.00;99886.23;652286;1285;140260;-83
2022/08/20 01:16:07;;;;;;;11.60;5.20;;;;;;;24.80;100.00;99873.35;653308;1285;139027;-89
2022/08/20 01:31:14;;;;;;;11.40;5.50;;;;;;;24.43;100.00;99887.92;653979;1285;138839;-88
2022/08/20 01:46:19;;;;;;;8.00;5.60;;;;;;;24.27;100.00;99889.63;652859;1285;139434;-88
2022/08/20 02:01:34;;;;;;;13.80;5.70;;;;;;;24.28;100.00;99934.98;652840;1285;139882;-91
2022/08/20 02:16:49;;;;;;;11.60;6.10;;;;;;;24.52;100.00;99975.94;653447;1284;138980;-89
2022/08/20 02:31:57;;;;;;;11.30;5.80;;;;;;;24.49;100.00;100031.77;653003;1284;140307;-88
2022/08/20 02:47:21;;;;;;;9.70;6.20;;;;;;;24.43;100.00;100059.86;656523;1279;139330;-88
2022/08/20 03:02:24;;;;;;;12.40;6.90;;;;;;;24.49;100.00;100061.28;656008;1279;139091;-87
2022/08/20 03:17:27;;;;;;;13.10;8.80;;;;;;;24.51;100.00;100057.61;655739;1281;139671;-88
2022/08/20 03:32:30;;;;;;;17.90;12.00;;;;;;;24.50;100.00;100044.35;656121;1281;140051;-87
2022/08/20 03:47:34;;;;;;;19.20;12.10;;;;;;;24.51;100.00;100014.23;657011;1279;139598;-89
2022/08/20 04:02:38;;;;;;;12.60;10.80;;;;;;;24.51;100.00;99991.09;656317;1279;140783;-89
2022/08/20 04:17:45;;;;;;;14.60;11.50;;;;;;;24.40;100.00;99981.89;657032;1279;139765;-88
2022/08/20 04:32:49;;;;;;;16.40;11.20;;;;;;;24.36;100.00;99983.90;658210;1279;139647;-88
2022/08/20 04:47:53;;;;;;;14.60;10.60;;;;;;;24.37;100.00;99980.80;657571;1282;139098;-88
2022/08/20 05:02:56;;;;;;;16.10;10.70;;;;;;;24.41;100.00;99967.72;659232;1279;140013;-88
2022/08/20 05:31:31;;;;;;;13.30;10.10;;;;;;;24.68;100.00;99966.38;639036;1313;1136892;-87
2022/08/20 05:46:41;;;;;;;10.90;8.90;;;;;;;24.76;100.00;99979.26;653391;1287;139730;-86
2022/08/20 06:01:44;;;;;;;11.20;8.80;;;;;;;25.12;100.00;99975.40;651577;1287;138650;-87
2022/08/20 06:16:47;;;;;;;27.90;18.10;;;;;;;25.43;100.00;99978.41;651604;1289;138594;-85
2022/08/20 06:32:00;;;;;;;16.80;12.40;;;;;;;25.63;100.00;99986.11;652246;1287;138698;-87
2022/08/20 06:47:05;;;;;;;21.50;10.80;;;;;;;25.76;100.00;100003.21;653212;1289;138974;-84
2022/08/20 07:02:09;;;;;;;39.20;17.30;;;;;;;25.98;100.00;100010.48;654207;1287;140438;-84
2022/08/20 07:17:12;;;;;;;40.20;19.50;;;;;;;26.12;100.00;100003.58;651956;1288;139007;-85
2022/08/20 07:32:35;;;;;;;26.40;15.20;;;;;;;26.17;100.00;100013.88;655630;1288;139064;-84
2022/08/20 07:47:46;;;;;;;20.40;12.70;;;;;;;26.49;100.00;100022.42;655789;1289;139635;-84
2022/08/20 08:02:50;;;;;;;14.10;8.80;;;;;;;26.76;100.00;100045.29;657464;1288;140558;-84
2022/08/20 08:17:57;;;;;;;15.40;9.20;;;;;;;27.11;99.88;100046.48;652102;1289;140156;-84
2022/08/20 08:48:31;;;;;;;17.80;9.50;;;;;;;27.36;97.25;100023.89;654911;1289;139408;-84
2022/08/20 09:03:38;;;;;;;12.00;8.80;;;;;;;27.46;96.18;100022.05;655892;1287;139920;-83
2022/08/20 09:18:43;;;;;;;17.50;8.90;;;;;;;27.63;94.52;100012.48;655934;1288;138989;-84
2022/08/20 09:33:48;;;;;;;12.50;8.10;;;;;;;27.31;95.57;100019.52;655933;1288;140764;-84
2022/08/20 09:48:51;;;;;;;17.20;10.10;;;;;;;27.31;95.96;100032.34;654961;1288;138957;-84
2022/08/20 10:03:55;;;;;;;13.00;9.40;;;;;;;27.29;95.15;100034.95;656070;1288;140751;-82
2022/08/20 10:19:00;;;;;;;14.80;10.40;;;;;;;27.18;94.88;100044.41;652728;1288;138883;-84
2022/08/20 10:34:04;;;;;;;17.30;9.60;;;;;;;27.34;94.98;100039.33;653278;1288;140524;-82
2022/08/20 10:49:08;;;;;;;16.60;11.40;;;;;;;27.95;94.17;100035.93;654622;1288;139252;-84
2022/08/20 11:04:11;;;;;;;25.00;16.00;;;;;;;28.54;91.41;100041.17;654059;1288;140319;-84
2022/08/20 11:19:17;;;;;;;15.30;9.90;;;;;;;29.21;88.28;100038.96;652982;1289;140078;-83
2022/08/20 11:34:21;;;;;;;40.70;24.00;;;;;;;30.82;85.11;100026.46;655195;1288;139090;-84
2022/08/20 11:49:25;;;;;;;14.10;11.10;;;;;;;31.99;79.78;100026.43;656902;1288;140229;-83
2022/08/20 12:04:30;;;;;;;18.90;11.40;;;;;;;33.17;75.50;100022.54;654350;1288;140241;-84
2022/08/20 12:27:48;;;;;;;28.30;19.20;;;;;;;33.25;71.02;100000.60;637729;1310;1520475;-82
2022/08/20 12:42:53;;;;;;;15.60;11.00;;;;;;;33.05;70.82;100006.55;654562;1287;139533;-84
2022/08/20 12:58:01;;;;;;;22.00;11.20;;;;;;;33.15;69.32;100006.95;656684;1287;141651;-80
2022/08/20 13:13:04;;;;;;;11.70;7.80;;;;;;;32.81;67.59;100004.24;653277;1287;139827;-80
2022/08/20 13:28:08;;;;;;;27.30;15.20;;;;;;;33.66;66.38;99990.28;651413;1287;138761;-80
2022/08/20 13:43:12;;;;;;;22.20;12.40;;;;;;;34.29;66.34;99976.23;651354;1287;139490;-79
2022/08/20 13:58:16;;;;;;;12.30;8.90;;;;;;;34.40;66.60;99963.58;651356;1287;139475;-80
2022/08/20 14:13:22;;;;;;;13.30;9.00;;;;;;;35.42;64.76;99956.23;652565;1287;139238;-79
2022/08/20 14:28:25;;;;;;;18.00;12.90;;;;;;;34.93;65.02;99947.39;652500;1287;139327;-79
2022/08/20 14:43:28;;;;;;;18.30;12.10;;;;;;;33.65;66.66;99940.30;652284;1287;138422;-79
2022/08/20 14:58:32;;;;;;;33.40;22.60;;;;;;;33.75;67.55;99944.48;652432;1287;138143;-79
2022/08/20 15:13:35;;;;;;;15.40;11.90;;;;;;;34.13;67.09;99941.05;652167;1287;139213;-80
2022/08/20 15:28:39;;;;;;;15.50;12.20;;;;;;;34.60;66.18;99955.80;651591;1287;138516;-79
2022/08/20 15:43:42;;;;;;;13.70;12.10;;;;;;;33.78;67.54;99966.96;650359;1287;139288;-79
2022/08/20 15:59:08;;;;;;;19.70;15.70;;;;;;;33.35;69.69;99964.30;653818;1287;140805;-79
2022/08/20 16:14:16;;;;;;;14.00;12.10;;;;;;;33.17;70.80;99967.64;652073;1287;139771;-81
2022/08/20 16:29:41;;;;;;;20.20;12.30;;;;;;;32.13;74.07;99964.36;651974;1287;138077;-87
2022/08/20 16:44:48;;;;;;;17.70;11.90;;;;;;;30.08;86.20;99958.05;659981;1287;139668;-84
2022/08/20 17:00:12;;;;;;;14.80;13.10;;;;;;;29.87;91.77;99976.14;658854;1286;138863;-84
2022/08/20 17:15:20;;;;;;;21.20;16.60;;;;;;;29.79;93.40;99958.52;659258;1287;139209;-83
2022/08/20 17:30:33;;;;;;;24.10;17.60;;;;;;;29.37;95.67;99939.95;659776;1286;140880;-83
2022/08/20 17:45:41;;;;;;;62.30;26.70;;;;;;;28.77;95.49;99953.99;658711;1287;140132;-82
2022/08/20 18:00:45;;;;;;;20.90;13.50;;;;;;;28.18;96.03;99966.09;651525;1287;140220;-82
2022/08/20 18:15:54;;;;;;;22.50;14.40;;;;;;;27.74;97.07;99977.98;651894;1287;139603;-82
2022/08/20 18:31:01;;;;;;;19.20;14.30;;;;;;;27.48;98.83;99969.46;651831;1287;139763;-82
2022/08/20 18:46:21;;;;;;;15.30;11.50;;;;;;;27.24;99.98;99967.48;652042;1288;22567;-80
2022/08/20 19:01:25;;;;;;;21.60;14.00;;;;;;;26.90;100.00;99967.06;650705;1289;23956;-81
2022/08/20 19:16:39;;;;;;;17.90;14.10;;;;;;;26.71;100.00;99965.65;649830;1289;22726;-85
2022/08/20 19:31:42;;;;;;;18.80;16.20;;;;;;;26.48;100.00;99973.29;655248;1287;25389;-84
2022/08/20 19:46:47;;;;;;;15.80;6.30;;;;;;;25.44;100.00;100015.90;655896;1283;24275;-84
2022/08/20 20:01:59;;;;;;;6.70;3.60;;;;;;;24.04;100.00;100031.14;657730;1282;25400;-88
2022/08/20 20:17:07;;;;;;;9.50;5.70;;;;;;;23.76;100.00;100043.83;657950;1281;22681;-86
2022/08/20 20:32:22;;;;;;;6.50;4.60;;;;;;;23.25;100.00;100040.70;657200;1281;26462;-86
2022/08/20 20:47:33;;;;;;;11.40;6.10;;;;;;;22.78;100.00;100015.52;657302;1282;25333;-85
2022/08/20 21:02:38;;;;;;;11.50;4.60;;;;;;;22.86;100.00;99998.71;656673;1282;24419;-88
2022/08/20 21:17:42;;;;;;;11.10;4.20;;;;;;;22.84;100.00;99992.77;660649;1282;22567;-84
2022/08/20 21:32:45;;;;;;;9.20;4.00;;;;;;;22.87;100.00;100014.46;657333;1280;22553;-86
2022/08/20 21:47:49;;;;;;;9.80;4.50;;;;;;;22.98;100.00;100001.94;658090;1282;26668;-87
2022/08/20 22:02:52;;;;;;;10.20;4.70;;;;;;;22.56;100.00;99989.33;656927;1283;22561;-84
2022/08/20 22:17:56;;;;;;;6.80;3.50;;;;;;;22.44;100.00;100015.02;657132;1283;24247;-84
2022/08/20 22:33:03;;;;;;;10.10;4.90;;;;;;;22.39;100.00;100054.65;657027;1283;22564;-83
2022/08/20 22:48:08;;;;;;;7.50;3.70;;;;;;;22.40;100.00;100046.04;657761;1283;26408;-84
2022/08/20 23:03:14;;;;;;;9.20;4.10;;;;;;;22.51;100.00;100042.55;656740;1282;22557;-85
2022/08/20 23:18:22;;;;;;;7.40;3.50;;;;;;;22.66;100.00;100043.59;657508;1282;23487;-84
2022/08/20 23:33:25;;;;;;;3.70;3.10;;;;;;;22.80;100.00;100038.59;658427;1281;24364;-87
2022/08/20 23:48:28;;;;;;;10.10;2.90;;;;;;;22.82;100.00;100041.21;657644;1283;25275;-87
